KSWF/SWF METAR and TAF weather

Enter ICAO airport designator
Station Type Date Time Source
KSWF METAR 2020/01/22 20:45 UTC NOAA

KSWF 222045Z 00000KT 10SM SKC 02/M08 A3039


Station Type Date Time Source
KSWF Decoded METAR 2020/01/22 20:45 UTC NOAA

Newburgh / Stewart, NY, United States (KSWF) 41-30N 074-06W
Jan 22, 2020 - 03:45 PM EST / 2020.01.22 2045 UTC
Wind: Calm:0
Visibility: 10 mile(s):0
Sky conditions: clear
Temperature: 35 F (2 C)
Dew Point: 17 F (-8 C)
Relative Humidity: 47%
Pressure (altimeter): 30.39 in. Hg (1029 hPa)
ob: KSWF 222045Z 00000KT 10SM SKC 02/M08 A3039
cycle: 21

Station Type Date Time Source
KSWF TAF 2020/01/22 21:39 UTC NOAA

TAF
AMD KSWF 222035Z 2221/2324 VRB03KT P6SM FEW250
FM231600 25004KT P6SM SCT250
FM232100 VRB02KT P6SM BKN250
AMD NOT SKED

Example: see airport list